Time;durP1;ratioP1;P1;durP2;ratioP2;P2;SDS_P1;SDS_P2;PMS_P1;PMS_P2;Temp;Humidity;BMP_temperature;BMP_pressure;BME280_temperature;BME280_humidity;BME280_pressure;Samples;Min_cycle;Max_cycle;Signal;HPM_P1;HPM_P2
2021/10/05 00:00:59;;;;;;;22.40;10.37;;;;;;;;;;4448407;32;20298;-50
2021/10/05 00:03:25;;;;;;;16.53;9.57;;;;;;;;;;4448564;32;20337;-51
2021/10/05 00:05:50;;;;;;;13.27;8.87;;;;;;;;;;4448334;32;20297;-49
2021/10/05 00:08:16;;;;;;;14.03;10.30;;;;;;;;;;4447374;32;20315;-49
2021/10/05 00:10:41;;;;;;;18.43;11.57;;;;;;;;;;4448629;32;20212;-49
2021/10/05 00:13:07;;;;;;;25.23;13.40;;;;;;;;;;4447996;32;20271;-51
2021/10/05 00:15:32;;;;;;;25.00;13.23;;;;;;;;;;4448277;32;20324;-49
2021/10/05 00:17:58;;;;;;;19.10;11.87;;;;;;;;;;4448301;32;20314;-51
2021/10/05 00:20:23;;;;;;;20.03;12.40;;;;;;;;;;4447996;32;20354;-50
2021/10/05 00:22:49;;;;;;;20.53;12.77;;;;;;;;;;4448042;32;20348;-49
2021/10/05 00:25:15;;;;;;;27.40;12.93;;;;;;;;;;4448107;32;20770;-49
2021/10/05 00:27:40;;;;;;;20.80;12.37;;;;;;;;;;4447986;32;20197;-49
2021/10/05 00:30:07;;;;;;;18.50;12.30;;;;;;;;;;4447795;32;20331;-50
2021/10/05 00:32:33;;;;;;;17.10;12.80;;;;;;;;;;4444670;32;20258;-50
2021/10/05 00:34:58;;;;;;;21.13;12.97;;;;;;;;;;4432647;32;20359;-50
2021/10/05 00:37:24;;;;;;;23.73;13.43;;;;;;;;;;4435389;32;20781;-50
2021/10/05 00:39:49;;;;;;;22.90;12.80;;;;;;;;;;4448084;32;20306;-49
2021/10/05 00:42:15;;;;;;;20.17;13.07;;;;;;;;;;4447784;32;20260;-50
2021/10/05 00:44:41;;;;;;;27.57;13.97;;;;;;;;;;4447648;32;20636;-50
2021/10/05 00:47:15;;;;;;;30.73;13.47;;;;;;;;;;4447835;32;20305;-51
2021/10/05 00:49:43;;;;;;;22.97;14.60;;;;;;;;;;4446482;32;20721;-50
2021/10/05 00:52:10;;;;;;;24.60;13.63;;;;;;;;;;4447636;32;20196;-50
2021/10/05 00:54:38;;;;;;;22.77;14.17;;;;;;;;;;4446632;32;20307;-51
2021/10/05 00:57:05;;;;;;;26.53;14.13;;;;;;;;;;4447627;32;20251;-50
2021/10/05 00:59:33;;;;;;;23.63;12.03;;;;;;;;;;4447915;32;20228;-49
2021/10/05 01:02:02;;;;;;;18.33;12.10;;;;;;;;;;4447369;32;20606;-49
2021/10/05 01:04:29;;;;;;;15.70;11.57;;;;;;;;;;4447576;32;20224;-49
2021/10/05 01:06:58;;;;;;;33.53;15.80;;;;;;;;;;4447668;32;20642;-50
2021/10/05 01:09:25;;;;;;;28.98;15.38;;;;;;;;;;4447427;32;20267;-50
2021/10/05 01:11:50;;;;;;;26.50;13.70;;;;;;;;;;4447642;32;20434;-50
2021/10/05 01:14:16;;;;;;;22.53;11.97;;;;;;;;;;4447387;32;20323;-50
2021/10/05 01:16:41;;;;;;;18.90;10.97;;;;;;;;;;4447521;32;20314;-50
2021/10/05 01:19:07;;;;;;;16.23;9.13;;;;;;;;;;4448867;32;20310;-50
2021/10/05 01:21:33;;;;;;;13.10;8.90;;;;;;;;;;4450853;32;20536;-49
2021/10/05 01:24:12;;;;;;;13.83;9.50;;;;;;;;;;4450639;32;20287;-50
2021/10/05 01:26:38;;;;;;;15.20;9.03;;;;;;;;;;4450685;32;20232;-50
2021/10/05 01:29:05;;;;;;;13.23;7.93;;;;;;;;;;4440707;32;20337;-50
2021/10/05 01:31:40;;;;;;;15.80;8.77;;;;;;;;;;4435190;32;20254;-49
2021/10/05 01:34:05;;;;;;;18.00;10.60;;;;;;;;;;4446932;32;20311;-50
2021/10/05 01:36:31;;;;;;;12.80;9.60;;;;;;;;;;4450500;32;20204;-50
2021/10/05 01:38:57;;;;;;;15.03;10.27;;;;;;;;;;4438126;32;20709;-50
2021/10/05 01:41:23;;;;;;;18.87;9.60;;;;;;;;;;4450313;32;20229;-50
2021/10/05 01:43:49;;;;;;;12.67;8.20;;;;;;;;;;4450665;32;20291;-51
2021/10/05 01:46:15;;;;;;;10.07;7.27;;;;;;;;;;4450186;32;20224;-50
2021/10/05 01:48:41;;;;;;;18.57;7.93;;;;;;;;;;4450673;32;20314;-54
2021/10/05 01:51:07;;;;;;;15.37;7.70;;;;;;;;;;4450567;32;20394;-51
2021/10/05 01:53:33;;;;;;;13.03;7.30;;;;;;;;;;4450185;32;20398;-51
2021/10/05 01:55:58;;;;;;;12.87;7.83;;;;;;;;;;4450651;32;20216;-50
2021/10/05 01:58:23;;;;;;;13.37;9.07;;;;;;;;;;4450316;32;20357;-50
2021/10/05 02:00:49;;;;;;;10.60;7.33;;;;;;;;;;4449744;32;20255;-49
2021/10/05 02:03:15;;;;;;;9.83;8.30;;;;;;;;;;4450222;32;20298;-50
2021/10/05 02:05:41;;;;;;;11.10;7.93;;;;;;;;;;4450350;32;20247;-48
2021/10/05 02:08:09;;;;;;;9.50;7.27;;;;;;;;;;4450068;32;20556;-49
2021/10/05 02:10:35;;;;;;;10.37;7.07;;;;;;;;;;4449870;32;20228;-49
2021/10/05 02:13:01;;;;;;;10.30;7.87;;;;;;;;;;4450135;32;20291;-49
2021/10/05 02:15:26;;;;;;;10.47;7.53;;;;;;;;;;4449705;32;20302;-49
2021/10/05 02:17:51;;;;;;;17.90;11.40;;;;;;;;;;4449904;32;20286;-49
2021/10/05 02:20:17;;;;;;;20.33;12.83;;;;;;;;;;4449942;32;20562;-50
2021/10/05 02:22:43;;;;;;;22.73;12.80;;;;;;;;;;4449804;32;20620;-49
2021/10/05 02:25:09;;;;;;;16.73;12.17;;;;;;;;;;4449666;32;20220;-49
2021/10/05 02:27:34;;;;;;;24.93;12.97;;;;;;;;;;4449870;32;20192;-49
2021/10/05 02:30:00;;;;;;;18.10;11.50;;;;;;;;;;4447485;32;20368;-49
2021/10/05 02:32:25;;;;;;;20.87;11.47;;;;;;;;;;4448738;32;20302;-49
2021/10/05 02:34:51;;;;;;;16.73;9.57;;;;;;;;;;4434120;32;20270;-50
2021/10/05 02:37:16;;;;;;;15.17;9.00;;;;;;;;;;4445545;32;20299;-49
2021/10/05 02:39:42;;;;;;;17.07;8.27;;;;;;;;;;4432587;32;20394;-49
2021/10/05 02:42:08;;;;;;;19.23;9.73;;;;;;;;;;4434245;32;20300;-50
2021/10/05 02:44:34;;;;;;;13.00;8.17;;;;;;;;;;4434334;32;20584;-50
2021/10/05 02:46:59;;;;;;;13.13;8.87;;;;;;;;;;4434274;32;20295;-49
2021/10/05 02:49:25;;;;;;;11.43;8.10;;;;;;;;;;4434076;32;20427;-50
2021/10/05 02:51:50;;;;;;;12.83;10.83;;;;;;;;;;4434189;32;20255;-50
2021/10/05 02:54:16;;;;;;;14.80;9.13;;;;;;;;;;4434143;32;20238;-49
2021/10/05 02:56:41;;;;;;;20.67;9.40;;;;;;;;;;4434004;32;20212;-50
2021/10/05 02:59:07;;;;;;;35.77;19.07;;;;;;;;;;4433827;32;20272;-50
2021/10/05 03:01:32;;;;;;;43.03;19.47;;;;;;;;;;4433583;32;20588;-50
2021/10/05 03:03:57;;;;;;;36.40;18.43;;;;;;;;;;4433915;32;20314;-50
2021/10/05 03:06:23;;;;;;;39.33;17.97;;;;;;;;;;4433361;32;20335;-49
2021/10/05 03:08:52;;;;;;;41.00;18.70;;;;;;;;;;4437282;32;20279;-51
2021/10/05 03:11:18;;;;;;;48.27;19.57;;;;;;;;;;4449113;32;20260;-50
2021/10/05 03:13:43;;;;;;;48.27;21.57;;;;;;;;;;4449180;32;20731;-51
2021/10/05 03:16:09;;;;;;;38.50;17.60;;;;;;;;;;4449004;32;20325;-49
2021/10/05 03:18:35;;;;;;;28.33;14.97;;;;;;;;;;4449067;32;20614;-51
2021/10/05 03:21:01;;;;;;;22.87;13.40;;;;;;;;;;4449400;32;20233;-49
2021/10/05 03:23:26;;;;;;;23.47;10.93;;;;;;;;;;4449299;32;20310;-51
2021/10/05 03:25:52;;;;;;;17.73;10.23;;;;;;;;;;4449024;32;20212;-50
2021/10/05 03:28:18;;;;;;;13.30;8.60;;;;;;;;;;4448531;32;20350;-51
2021/10/05 03:30:44;;;;;;;17.83;9.00;;;;;;;;;;4449164;32;20252;-49
2021/10/05 03:33:09;;;;;;;10.93;8.07;;;;;;;;;;4443173;32;20395;-50
2021/10/05 03:35:35;;;;;;;22.00;10.87;;;;;;;;;;4449148;32;20773;-48
2021/10/05 03:38:01;;;;;;;34.07;15.27;;;;;;;;;;4448708;32;20279;-50
2021/10/05 03:40:27;;;;;;;23.50;12.00;;;;;;;;;;4448807;32;20292;-49
2021/10/05 03:42:53;;;;;;;29.77;13.13;;;;;;;;;;4448894;32;20205;-50
2021/10/05 03:45:18;;;;;;;33.37;12.10;;;;;;;;;;4448404;32;20242;-50
2021/10/05 03:47:44;;;;;;;24.03;12.83;;;;;;;;;;4448657;32;20227;-49
2021/10/05 03:50:10;;;;;;;22.37;12.47;;;;;;;;;;4448939;32;20311;-49
2021/10/05 03:52:37;;;;;;;24.47;12.40;;;;;;;;;;4448729;32;20564;-50
2021/10/05 03:55:04;;;;;;;30.07;14.23;;;;;;;;;;4448607;32;20533;-49
2021/10/05 03:57:29;;;;;;;26.10;13.77;;;;;;;;;;4448314;32;20295;-51
2021/10/05 03:59:55;;;;;;;25.80;12.50;;;;;;;;;;4448779;32;20319;-49
2021/10/05 04:02:20;;;;;;;17.03;11.80;;;;;;;;;;4447799;32;20367;-49
2021/10/05 04:04:46;;;;;;;20.03;11.03;;;;;;;;;;4448285;32;20216;-51
2021/10/05 04:07:11;;;;;;;25.00;14.77;;;;;;;;;;4448168;32;20213;-50
2021/10/05 04:09:36;;;;;;;23.20;12.27;;;;;;;;;;4448587;32;20259;-50
2021/10/05 04:12:02;;;;;;;17.27;10.07;;;;;;;;;;4448190;32;20689;-49
2021/10/05 04:14:27;;;;;;;20.03;11.93;;;;;;;;;;4448149;32;20359;-50
2021/10/05 04:16:53;;;;;;;30.37;14.17;;;;;;;;;;4448272;32;20296;-50
2021/10/05 04:19:18;;;;;;;32.70;14.20;;;;;;;;;;4446752;32;20294;-50
2021/10/05 04:21:44;;;;;;;27.27;14.67;;;;;;;;;;4448284;32;20526;-49
2021/10/05 04:24:09;;;;;;;23.03;12.63;;;;;;;;;;4448263;32;20677;-49
2021/10/05 04:26:35;;;;;;;50.53;20.83;;;;;;;;;;4447664;32;20533;-49
2021/10/05 04:29:01;;;;;;;73.73;32.40;;;;;;;;;;4439884;32;20290;-48
2021/10/05 04:31:27;;;;;;;38.77;19.73;;;;;;;;;;4446109;32;20274;-49
2021/10/05 04:33:52;;;;;;;26.17;13.70;;;;;;;;;;4447953;32;20317;-50
2021/10/05 04:36:18;;;;;;;21.90;12.50;;;;;;;;;;4447665;32;20255;-49
2021/10/05 04:38:43;;;;;;;19.77;12.13;;;;;;;;;;4436054;32;20291;-49
2021/10/05 04:41:09;;;;;;;21.43;12.07;;;;;;;;;;4432293;32;20247;-50
2021/10/05 04:43:34;;;;;;;27.93;14.27;;;;;;;;;;4432370;32;20310;-51
2021/10/05 04:46:00;;;;;;;30.53;17.33;;;;;;;;;;4432384;32;20300;-49
2021/10/05 04:48:25;;;;;;;34.83;16.53;;;;;;;;;;4432215;32;20624;-51
2021/10/05 04:50:51;;;;;;;29.87;16.37;;;;;;;;;;4432137;32;20245;-50
2021/10/05 04:53:16;;;;;;;34.33;18.33;;;;;;;;;;4431539;32;20303;-50
2021/10/05 04:55:44;;;;;;;43.00;15.73;;;;;;;;;;4440399;32;20341;-50
2021/10/05 04:58:11;;;;;;;27.33;14.77;;;;;;;;;;4447126;32;20346;-51
2021/10/05 05:00:37;;;;;;;29.17;15.50;;;;;;;;;;4446854;32;20363;-49
2021/10/05 05:03:02;;;;;;;43.10;18.63;;;;;;;;;;4446370;32;20322;-51
2021/10/05 05:05:28;;;;;;;33.60;15.77;;;;;;;;;;4445559;32;20309;-49
2021/10/05 05:08:01;;;;;;;37.40;16.47;;;;;;;;;;4446154;32;20287;-49
2021/10/05 05:10:27;;;;;;;37.47;16.23;;;;;;;;;;4446886;32;20268;-49
2021/10/05 05:12:53;;;;;;;26.93;14.60;;;;;;;;;;4446828;32;20359;-51
2021/10/05 05:15:19;;;;;;;26.87;15.47;;;;;;;;;;4445948;32;20236;-49
2021/10/05 05:17:45;;;;;;;26.53;13.60;;;;;;;;;;4446732;32;20208;-49
2021/10/05 05:20:11;;;;;;;29.07;14.97;;;;;;;;;;4447076;32;20323;-49
2021/10/05 05:22:36;;;;;;;31.20;15.60;;;;;;;;;;4447080;32;20192;-49
2021/10/05 05:25:03;;;;;;;28.10;17.00;;;;;;;;;;4447027;32;20240;-50
2021/10/05 05:27:29;;;;;;;30.37;17.63;;;;;;;;;;4458997;32;20588;-50
2021/10/05 05:29:54;;;;;;;39.20;22.30;;;;;;;;;;4448670;32;20694;-50
2021/10/05 05:32:20;;;;;;;47.20;22.40;;;;;;;;;;4446523;32;20378;-50
2021/10/05 05:34:45;;;;;;;56.77;27.17;;;;;;;;;;4431653;32;20248;-49
2021/10/05 05:37:11;;;;;;;119.83;47.03;;;;;;;;;;4430997;32;20292;-49
2021/10/05 05:39:40;;;;;;;94.87;36.47;;;;;;;;;;4431430;32;20274;-50
2021/10/05 05:42:07;;;;;;;64.63;29.73;;;;;;;;;;4445002;32;20197;-50
2021/10/05 05:44:33;;;;;;;73.20;26.67;;;;;;;;;;4446435;32;20255;-48
2021/10/05 05:46:58;;;;;;;52.57;24.93;;;;;;;;;;4444525;32;20205;-48
2021/10/05 05:49:23;;;;;;;36.20;20.43;;;;;;;;;;4444721;32;20688;-48
2021/10/05 05:51:49;;;;;;;42.83;21.17;;;;;;;;;;4444697;32;20250;-50
2021/10/05 05:54:14;;;;;;;29.23;16.70;;;;;;;;;;4444768;32;20354;-50
2021/10/05 05:56:39;;;;;;;56.23;21.23;;;;;;;;;;4444923;32;20306;-51
2021/10/05 05:59:05;;;;;;;48.43;21.70;;;;;;;;;;4444853;32;20315;-50
2021/10/05 06:01:31;;;;;;;55.60;23.77;;;;;;;;;;4446491;32;20231;-50
2021/10/05 06:03:57;;;;;;;39.03;18.03;;;;;;;;;;4431840;32;20809;-50
2021/10/05 06:06:23;;;;;;;62.23;21.57;;;;;;;;;;4433861;32;20205;-49
2021/10/05 06:08:49;;;;;;;41.83;18.03;;;;;;;;;;4447554;32;20263;-51
2021/10/05 06:11:17;;;;;;;37.20;18.40;;;;;;;;;;4449309;32;20573;-49
2021/10/05 06:13:42;;;;;;;34.73;18.37;;;;;;;;;;4448938;32;20240;-50
2021/10/05 06:16:08;;;;;;;48.13;14.83;;;;;;;;;;4447782;32;20299;-50
2021/10/05 06:18:33;;;;;;;26.70;14.93;;;;;;;;;;4446497;32;20366;-51
2021/10/05 06:20:58;;;;;;;26.10;14.40;;;;;;;;;;4433490;32;20694;-49
2021/10/05 06:23:24;;;;;;;26.87;14.30;;;;;;;;;;4447133;32;20379;-50
2021/10/05 06:25:54;;;;;;;25.37;13.60;;;;;;;;;;4447413;32;20272;-50
2021/10/05 06:28:20;;;;;;;20.17;11.73;;;;;;;;;;4447579;32;20212;-50
2021/10/05 06:30:46;;;;;;;21.33;12.07;;;;;;;;;;4448237;32;20794;-50
2021/10/05 06:33:11;;;;;;;38.03;14.70;;;;;;;;;;4447505;32;20311;-51
2021/10/05 06:35:37;;;;;;;19.57;12.40;;;;;;;;;;4448031;32;20285;-49
2021/10/05 06:38:03;;;;;;;17.50;11.87;;;;;;;;;;4448691;32;20733;-49
2021/10/05 06:40:30;;;;;;;18.93;11.37;;;;;;;;;;4449199;32;20557;-49
2021/10/05 06:42:56;;;;;;;25.10;13.63;;;;;;;;;;4447838;32;20344;-49
2021/10/05 06:45:22;;;;;;;20.37;12.57;;;;;;;;;;4448769;32;20706;-50
2021/10/05 06:47:47;;;;;;;26.53;12.97;;;;;;;;;;4447397;32;20323;-51
2021/10/05 06:50:14;;;;;;;26.63;13.10;;;;;;;;;;4448901;32;20250;-50
2021/10/05 06:52:41;;;;;;;23.47;13.40;;;;;;;;;;4449274;32;20310;-50
2021/10/05 06:55:07;;;;;;;16.63;12.20;;;;;;;;;;4448719;32;20768;-49
2021/10/05 06:57:32;;;;;;;21.30;12.53;;;;;;;;;;4449114;32;20537;-49
2021/10/05 06:59:58;;;;;;;25.70;12.80;;;;;;;;;;4449040;32;20303;-50
2021/10/05 07:02:24;;;;;;;19.50;11.20;;;;;;;;;;4448148;32;20212;-50
2021/10/05 07:04:49;;;;;;;25.17;12.97;;;;;;;;;;4449119;32;20641;-49
2021/10/05 07:07:15;;;;;;;18.70;10.83;;;;;;;;;;4448485;32;20200;-50
2021/10/05 07:09:40;;;;;;;16.07;10.77;;;;;;;;;;4448636;32;20580;-50
2021/10/05 07:12:06;;;;;;;15.57;9.50;;;;;;;;;;4447409;32;20363;-50
2021/10/05 07:14:31;;;;;;;14.23;9.07;;;;;;;;;;4448536;32;20680;-48
2021/10/05 07:16:57;;;;;;;16.80;9.97;;;;;;;;;;4447894;32;20534;-50
2021/10/05 07:19:22;;;;;;;15.73;9.33;;;;;;;;;;4447914;32;20224;-50
2021/10/05 07:21:48;;;;;;;13.07;8.23;;;;;;;;;;4448521;32;20197;-51
2021/10/05 07:24:13;;;;;;;18.33;8.20;;;;;;;;;;4448519;32;20657;-50
2021/10/05 07:26:39;;;;;;;14.13;7.90;;;;;;;;;;4448812;32;20201;-49
2021/10/05 07:29:04;;;;;;;17.43;8.17;;;;;;;;;;4448382;32;20723;-50
2021/10/05 07:31:34;;;;;;;8.70;7.17;;;;;;;;;;4448609;32;20299;-50
2021/10/05 07:34:00;;;;;;;10.77;7.03;;;;;;;;;;4448799;32;20216;-50
2021/10/05 07:36:26;;;;;;;7.60;6.37;;;;;;;;;;4448682;32;20412;-52
2021/10/05 07:38:51;;;;;;;11.23;7.90;;;;;;;;;;4448458;32;20366;-50
2021/10/05 07:41:17;;;;;;;12.47;7.83;;;;;;;;;;4448252;32;20213;-50
2021/10/05 07:43:42;;;;;;;10.83;6.93;;;;;;;;;;4448944;32;20774;-50
2021/10/05 07:46:08;;;;;;;9.60;6.80;;;;;;;;;;4448881;32;20353;-51
2021/10/05 07:48:33;;;;;;;11.30;7.73;;;;;;;;;;4449037;32;20710;-50
2021/10/05 07:50:59;;;;;;;14.50;7.53;;;;;;;;;;4448552;32;20212;-50
2021/10/05 07:53:24;;;;;;;11.50;7.30;;;;;;;;;;4448537;32;20724;-50
2021/10/05 07:55:50;;;;;;;21.30;8.13;;;;;;;;;;4448367;32;20277;-51
2021/10/05 07:58:15;;;;;;;9.90;7.03;;;;;;;;;;4447081;32;20297;-50
2021/10/05 08:00:41;;;;;;;10.70;7.43;;;;;;;;;;4448752;32;20263;-50
2021/10/05 08:03:06;;;;;;;13.55;7.10;;;;;;;;;;4448089;32;20736;-50
2021/10/05 08:05:32;;;;;;;16.30;6.43;;;;;;;;;;4448164;32;20237;-51
2021/10/05 08:08:01;;;;;;;21.17;7.53;;;;;;;;;;4448378;32;20352;-52
2021/10/05 08:10:27;;;;;;;11.90;7.70;;;;;;;;;;4448082;32;20233;-49
2021/10/05 08:12:53;;;;;;;9.80;7.12;;;;;;;;;;4446688;32;20289;-50
2021/10/05 08:15:19;;;;;;;20.42;7.78;;;;;;;;;;4447873;32;20692;-49
2021/10/05 08:17:44;;;;;;;14.00;8.57;;;;;;;;;;4447898;32;20236;-49
2021/10/05 08:20:10;;;;;;;9.48;6.95;;;;;;;;;;4447971;32;20339;-49
2021/10/05 08:22:37;;;;;;;12.23;7.03;;;;;;;;;;4448015;32;20526;-50
2021/10/05 08:25:03;;;;;;;21.12;7.93;;;;;;;;;;4447890;32;20224;-50
2021/10/05 08:27:29;;;;;;;9.43;6.80;;;;;;;;;;4446201;32;20330;-50
2021/10/05 08:29:54;;;;;;;9.83;6.40;;;;;;;;;;4447339;32;20641;-51
2021/10/05 08:32:20;;;;;;;13.87;7.77;;;;;;;;;;4447326;32;20348;-51
2021/10/05 08:34:46;;;;;;;13.07;7.40;;;;;;;;;;4447435;32;20554;-50
2021/10/05 08:37:11;;;;;;;11.23;6.37;;;;;;;;;;4447775;32;20267;-50
2021/10/05 08:39:37;;;;;;;15.27;7.00;;;;;;;;;;4447668;32;20280;-50
2021/10/05 08:42:03;;;;;;;15.52;6.93;;;;;;;;;;4448034;32;20596;-50
2021/10/05 08:44:29;;;;;;;8.27;6.33;;;;;;;;;;4447844;32;20224;-49
2021/10/05 08:46:54;;;;;;;18.80;9.10;;;;;;;;;;4447277;32;20276;-50
2021/10/05 08:49:21;;;;;;;10.15;6.85;;;;;;;;;;4447366;32;20488;-50
2021/10/05 08:51:48;;;;;;;12.68;6.75;;;;;;;;;;4447368;32;20266;-51
2021/10/05 08:54:14;;;;;;;11.85;6.28;;;;;;;;;;4447006;32;20575;-50
2021/10/05 08:56:41;;;;;;;9.77;7.05;;;;;;;;;;4447395;32;20250;-49
2021/10/05 08:59:07;;;;;;;13.38;6.15;;;;;;;;;;4447463;32;20197;-49
2021/10/05 09:01:34;;;;;;;14.02;7.30;;;;;;;;;;4442085;32;20278;-49
2021/10/05 09:04:01;;;;;;;12.37;6.45;;;;;;;;;;4431923;32;20541;-49
2021/10/05 09:06:26;;;;;;;7.68;6.18;;;;;;;;;;4431401;32;20372;-52
2021/10/05 09:08:55;;;;;;;7.82;5.37;;;;;;;;;;4432612;32;20716;-50
2021/10/05 09:11:24;;;;;;;11.57;6.00;;;;;;;;;;4447381;32;20374;-50
2021/10/05 09:13:53;;;;;;;17.17;6.93;;;;;;;;;;4447607;32;20288;-50
2021/10/05 09:16:30;;;;;;;10.05;5.90;;;;;;;;;;4447517;32;20235;-50
2021/10/05 09:19:03;;;;;;;9.25;5.85;;;;;;;;;;4447429;32;20208;-50
2021/10/05 09:21:33;;;;;;;10.13;5.93;;;;;;;;;;4447465;32;20209;-50
2021/10/05 09:24:00;;;;;;;13.25;5.40;;;;;;;;;;4447180;32;20220;-50
2021/10/05 09:26:33;;;;;;;8.75;6.45;;;;;;;;;;4447269;32;20282;-49
2021/10/05 09:29:20;;;;;;;9.43;6.50;;;;;;;;;;4447266;32;20201;-50
2021/10/05 09:32:07;;;;;;;10.35;6.07;;;;;;;;;;4447399;32;20200;-49
2021/10/05 09:34:46;;;;;;;8.80;6.07;;;;;;;;;;4432802;32;20252;-49
2021/10/05 09:37:20;;;;;;;9.20;5.73;;;;;;;;;;4431899;32;20224;-49
2021/10/05 09:39:57;;;;;;;8.93;5.75;;;;;;;;;;4433156;32;20259;-49
2021/10/05 09:42:37;;;;;;;6.37;5.62;;;;;;;;;;4437093;32;20212;-50
2021/10/05 09:45:21;;;;;;;8.52;6.05;;;;;;;;;;4450402;32;20352;-50
2021/10/05 09:47:50;;;;;;;7.68;5.65;;;;;;;;;;4450333;32;20341;-51
2021/10/05 09:50:15;;;;;;;8.18;5.68;;;;;;;;;;4449985;32;20299;-51
2021/10/05 09:52:48;;;;;;;8.43;5.05;;;;;;;;;;4450192;32;20251;-50
2021/10/05 09:55:15;;;;;;;5.47;4.87;;;;;;;;;;4450456;32;20236;-51
2021/10/05 09:57:41;;;;;;;10.00;5.90;;;;;;;;;;4450182;32;20298;-49
2021/10/05 10:00:09;;;;;;;7.62;5.35;;;;;;;;;;4450320;32;20220;-49
2021/10/05 10:02:42;;;;;;;8.80;5.32;;;;;;;;;;4448985;32;20232;-49
2021/10/05 10:05:15;;;;;;;15.65;6.03;;;;;;;;;;4449892;32;20707;-49
2021/10/05 10:07:44;;;;;;;8.27;5.22;;;;;;;;;;4449612;32;20358;-50
2021/10/05 10:10:13;;;;;;;9.25;6.18;;;;;;;;;;4449798;32;20281;-50
2021/10/05 10:12:40;;;;;;;10.65;5.72;;;;;;;;;;4449931;32;20270;-50
2021/10/05 10:15:08;;;;;;;14.85;5.30;;;;;;;;;;4450097;32;20250;-49
2021/10/05 10:17:34;;;;;;;9.77;6.00;;;;;;;;;;4449300;32;20682;-49
2021/10/05 10:19:59;;;;;;;14.60;6.00;;;;;;;;;;4449789;32;20530;-50
2021/10/05 10:22:25;;;;;;;7.75;5.43;;;;;;;;;;4449466;32;20282;-50
2021/10/05 10:24:54;;;;;;;8.02;5.90;;;;;;;;;;4449171;32;20236;-50
2021/10/05 10:27:21;;;;;;;11.43;6.07;;;;;;;;;;4449607;32;20216;-50
2021/10/05 10:29:47;;;;;;;11.40;5.85;;;;;;;;;;4449780;32;20288;-50
2021/10/05 10:32:17;;;;;;;22.02;6.53;;;;;;;;;;4449511;32;20200;-50
2021/10/05 10:34:44;;;;;;;13.82;6.47;;;;;;;;;;4433680;32;20285;-50
2021/10/05 10:37:10;;;;;;;9.90;6.35;;;;;;;;;;4433843;32;20212;-50
2021/10/05 10:39:38;;;;;;;9.05;5.35;;;;;;;;;;4442603;32;20538;-51
2021/10/05 10:42:06;;;;;;;12.18;6.40;;;;;;;;;;4449549;32;20236;-50
2021/10/05 10:44:41;;;;;;;12.23;5.93;;;;;;;;;;4449271;32;20255;-50
2021/10/05 10:47:08;;;;;;;15.90;5.97;;;;;;;;;;4449028;32;20341;-51
2021/10/05 10:49:34;;;;;;;9.25;5.47;;;;;;;;;;4449292;32;20240;-50
2021/10/05 10:52:00;;;;;;;6.90;5.50;;;;;;;;;;4448370;32;20446;-49
2021/10/05 10:54:26;;;;;;;8.70;5.90;;;;;;;;;;4449412;32;20257;-50
2021/10/05 10:57:01;;;;;;;9.20;4.87;;;;;;;;;;4448296;32;20288;-50
2021/10/05 10:59:28;;;;;;;6.22;4.82;;;;;;;;;;4450073;32;20563;-49
2021/10/05 11:01:53;;;;;;;7.72;5.57;;;;;;;;;;4441707;32;20285;-49
2021/10/05 11:04:20;;;;;;;11.32;5.60;;;;;;;;;;4441412;32;20292;-50
2021/10/05 11:06:52;;;;;;;10.93;5.20;;;;;;;;;;4449375;32;20358;-49
2021/10/05 11:09:18;;;;;;;6.70;4.20;;;;;;;;;;4447988;32;20233;-50
2021/10/05 11:11:49;;;;;;;6.43;4.90;;;;;;;;;;4449586;32;20232;-51
2021/10/05 11:14:25;;;;;;;8.65;4.55;;;;;;;;;;4449587;32;20381;-50
2021/10/05 11:16:55;;;;;;;5.65;4.55;;;;;;;;;;4447809;32;20315;-50
2021/10/05 11:19:20;;;;;;;7.50;4.78;;;;;;;;;;4449258;32;20252;-50
2021/10/05 11:21:48;;;;;;;6.75;4.07;;;;;;;;;;4449143;32;20349;-50
2021/10/05 11:24:15;;;;;;;6.22;4.55;;;;;;;;;;4449428;32;20220;-49
2021/10/05 11:26:46;;;;;;;7.78;4.53;;;;;;;;;;4449349;32;20726;-50
2021/10/05 11:29:21;;;;;;;7.32;4.70;;;;;;;;;;4448813;32;20254;-50
2021/10/05 11:31:49;;;;;;;6.78;4.97;;;;;;;;;;4448948;32;20290;-51
2021/10/05 11:34:17;;;;;;;10.00;5.20;;;;;;;;;;4448383;32;20334;-51
2021/10/05 11:36:44;;;;;;;6.00;5.25;;;;;;;;;;4448878;32;20268;-50
2021/10/05 11:39:17;;;;;;;7.07;4.70;;;;;;;;;;4449341;32;20655;-50
2021/10/05 11:41:43;;;;;;;7.07;3.97;;;;;;;;;;4449259;32;20217;-50
2021/10/05 11:44:18;;;;;;;9.50;5.35;;;;;;;;;;4449399;32;20310;-50
2021/10/05 11:47:01;;;;;;;5.75;4.87;;;;;;;;;;4448869;32;20216;-51
2021/10/05 11:49:33;;;;;;;13.20;4.85;;;;;;;;;;4448859;32;20224;-50
2021/10/05 11:52:00;;;;;;;7.03;4.47;;;;;;;;;;4447375;32;20236;-50
2021/10/05 11:54:33;;;;;;;5.25;4.12;;;;;;;;;;4448493;32;20642;-50
2021/10/05 11:57:01;;;;;;;6.03;4.90;;;;;;;;;;4448301;32;20270;-48
2021/10/05 11:59:28;;;;;;;8.38;5.25;;;;;;;;;;4448445;32;20236;-49
2021/10/05 12:01:57;;;;;;;7.28;4.60;;;;;;;;;;4448126;32;20247;-50
2021/10/05 12:04:25;;;;;;;12.15;4.70;;;;;;;;;;4448668;32;20719;-49
2021/10/05 12:07:00;;;;;;;10.43;5.10;;;;;;;;;;4448818;32;20325;-50
2021/10/05 12:09:28;;;;;;;6.60;4.70;;;;;;;;;;4448683;32;20286;-49
2021/10/05 12:12:11;;;;;;;7.43;4.72;;;;;;;;;;4448733;32;20559;-49
2021/10/05 12:14:41;;;;;;;8.82;4.68;;;;;;;;;;4448692;32;20382;-50
2021/10/05 12:17:15;;;;;;;8.88;5.37;;;;;;;;;;4448472;32;20310;-52
2021/10/05 12:19:49;;;;;;;13.02;5.30;;;;;;;;;;4448828;32;20375;-49
2021/10/05 12:22:23;;;;;;;5.78;4.95;;;;;;;;;;4448205;32;20543;-50
2021/10/05 12:24:56;;;;;;;8.18;5.35;;;;;;;;;;4448289;32;20239;-50
2021/10/05 12:27:24;;;;;;;5.70;4.40;;;;;;;;;;4448121;32;20288;-51
2021/10/05 12:29:59;;;;;;;8.93;5.22;;;;;;;;;;4448182;32;20237;-50
2021/10/05 12:32:32;;;;;;;6.93;5.47;;;;;;;;;;4446952;32;20701;-50
2021/10/05 12:34:59;;;;;;;9.13;5.15;;;;;;;;;;4432823;32;20244;-50
2021/10/05 12:37:29;;;;;;;6.80;5.20;;;;;;;;;;4432564;32;20279;-50
2021/10/05 12:40:02;;;;;;;8.15;5.03;;;;;;;;;;4432858;32;20621;-50
2021/10/05 12:42:47;;;;;;;5.20;4.55;;;;;;;;;;4432904;32;20252;-50
2021/10/05 12:45:19;;;;;;;5.62;4.70;;;;;;;;;;4432733;32;20291;-49
2021/10/05 12:47:55;;;;;;;7.82;4.43;;;;;;;;;;4431264;32;20310;-49
2021/10/05 12:50:24;;;;;;;6.45;4.97;;;;;;;;;;4432617;32;20248;-50
2021/10/05 12:52:55;;;;;;;4.90;3.95;;;;;;;;;;4432274;32;20615;-50
2021/10/05 12:55:22;;;;;;;8.15;4.62;;;;;;;;;;4442338;32;20323;-49
2021/10/05 12:57:48;;;;;;;7.35;4.20;;;;;;;;;;4447815;32;20559;-49
2021/10/05 13:00:16;;;;;;;7.75;4.60;;;;;;;;;;4447915;32;20256;-50
2021/10/05 13:02:42;;;;;;;7.20;5.20;;;;;;;;;;4447344;32;20212;-50
2021/10/05 13:05:07;;;;;;;7.28;4.40;;;;;;;;;;4447955;32;20259;-51
2021/10/05 13:07:33;;;;;;;5.15;3.37;;;;;;;;;;4448172;32;20204;-51
2021/10/05 13:09:58;;;;;;;5.05;4.07;;;;;;;;;;4447836;32;20589;-51
2021/10/05 13:12:24;;;;;;;6.87;4.28;;;;;;;;;;4448039;32;20255;-51
2021/10/05 13:14:49;;;;;;;8.35;3.85;;;;;;;;;;4447399;32;20261;-50
2021/10/05 13:17:15;;;;;;;4.40;3.80;;;;;;;;;;4448002;32;20564;-50
2021/10/05 13:19:40;;;;;;;4.68;3.30;;;;;;;;;;4447978;32;20315;-50
2021/10/05 13:22:06;;;;;;;5.95;3.85;;;;;;;;;;4448369;32;20630;-50
2021/10/05 13:24:31;;;;;;;6.35;4.30;;;;;;;;;;4447122;32;20236;-50
2021/10/05 13:26:57;;;;;;;6.37;3.72;;;;;;;;;;4447844;32;20638;-49
2021/10/05 13:29:22;;;;;;;6.25;4.03;;;;;;;;;;4447732;32;20565;-50
2021/10/05 13:31:47;;;;;;;6.07;4.12;;;;;;;;;;4448093;32;20280;-51
2021/10/05 13:34:14;;;;;;;11.27;5.10;;;;;;;;;;4447540;32;20275;-51
2021/10/05 13:36:39;;;;;;;4.93;3.50;;;;;;;;;;4447751;32;20326;-50
2021/10/05 13:39:05;;;;;;;10.88;4.53;;;;;;;;;;4447278;32;20824;-49
2021/10/05 13:41:30;;;;;;;4.20;3.62;;;;;;;;;;4447854;32;20683;-50
2021/10/05 13:43:56;;;;;;;4.65;3.95;;;;;;;;;;4448107;32;20330;-51
2021/10/05 13:46:22;;;;;;;7.10;4.07;;;;;;;;;;4446171;32;20236;-50
2021/10/05 13:48:47;;;;;;;4.50;3.67;;;;;;;;;;4447690;32;20291;-51
2021/10/05 13:51:13;;;;;;;4.00;3.33;;;;;;;;;;4446426;32;20244;-51
2021/10/05 13:53:38;;;;;;;9.05;3.90;;;;;;;;;;4447364;32;20727;-49
2021/10/05 13:56:03;;;;;;;5.97;4.40;;;;;;;;;;4447592;32;20782;-50
2021/10/05 13:58:29;;;;;;;6.87;3.92;;;;;;;;;;4447559;32;20213;-50
2021/10/05 14:00:54;;;;;;;6.32;4.12;;;;;;;;;;4446554;32;20224;-50
2021/10/05 14:03:20;;;;;;;5.95;3.90;;;;;;;;;;4447250;32;20355;-51
2021/10/05 14:05:46;;;;;;;4.05;3.65;;;;;;;;;;4447775;32;20355;-49
2021/10/05 14:08:11;;;;;;;5.28;3.47;;;;;;;;;;4447329;32;20300;-49
2021/10/05 14:10:37;;;;;;;9.90;4.18;;;;;;;;;;4447395;32;20277;-50
2021/10/05 14:13:02;;;;;;;8.48;4.18;;;;;;;;;;4447262;32;20205;-50
2021/10/05 14:15:28;;;;;;;5.32;4.43;;;;;;;;;;4447501;32;20271;-51
2021/10/05 14:17:53;;;;;;;11.52;5.03;;;;;;;;;;4447586;32;20283;-51
2021/10/05 14:20:18;;;;;;;5.57;4.15;;;;;;;;;;4446105;32;20302;-51
2021/10/05 14:22:44;;;;;;;9.80;4.35;;;;;;;;;;4447345;32;20247;-51
2021/10/05 14:25:10;;;;;;;10.13;3.75;;;;;;;;;;4445071;32;20346;-50
2021/10/05 14:27:37;;;;;;;7.45;4.55;;;;;;;;;;4446034;32;20587;-49